createdAt,value
2022-08-26T00:01:53.759Z,18.30
2022-08-26T00:04:21.460Z,18.30
2022-08-26T00:06:48.413Z,18.30
2022-08-26T00:09:15.882Z,18.30
2022-08-26T00:11:44.355Z,18.40
2022-08-26T00:14:13.802Z,18.30
2022-08-26T00:16:47.762Z,18.20
2022-08-26T00:19:17.050Z,18.20
2022-08-26T00:21:44.045Z,18.30
2022-08-26T00:24:10.761Z,18.00
2022-08-26T00:26:37.504Z,18.10
2022-08-26T00:29:04.453Z,18.10
2022-08-26T00:31:32.489Z,18.20
2022-08-26T00:33:59.552Z,18.10
2022-08-26T00:36:30.009Z,18.10
2022-08-26T00:38:57.552Z,18.00
2022-08-26T00:41:24.339Z,17.90
2022-08-26T00:43:51.480Z,17.90
2022-08-26T00:46:29.231Z,17.90
2022-08-26T00:49:12.074Z,17.80
2022-08-26T00:51:52.320Z,17.70
2022-08-26T00:54:23.965Z,17.70
2022-08-26T00:57:15.819Z,17.80
2022-08-26T00:59:52.450Z,17.60
2022-08-26T01:02:20.959Z,17.50
2022-08-26T01:04:54.318Z,17.50
2022-08-26T01:07:24.480Z,17.50
2022-08-26T01:09:51.348Z,17.50
2022-08-26T01:12:22.053Z,17.60
2022-08-26T01:14:50.062Z,17.50
2022-08-26T01:17:17.304Z,17.50
2022-08-26T01:19:58.656Z,17.50
2022-08-26T01:22:55.399Z,17.50
2022-08-26T01:25:25.093Z,17.40
2022-08-26T01:27:53.106Z,17.40
2022-08-26T01:30:21.097Z,17.40
2022-08-26T01:32:49.994Z,17.40
2022-08-26T01:35:16.816Z,17.40
2022-08-26T01:37:48.090Z,17.30
2022-08-26T01:40:20.773Z,17.30
2022-08-26T01:42:49.151Z,17.30
2022-08-26T01:45:29.057Z,17.20
2022-08-26T01:47:59.829Z,17.10
2022-08-26T01:50:31.642Z,17.10
2022-08-26T01:53:03.078Z,17.30
2022-08-26T01:55:33.499Z,17.20
2022-08-26T01:58:06.494Z,17.10
2022-08-26T02:00:34.941Z,17.00
2022-08-26T02:03:17.039Z,17.00
2022-08-26T02:05:53.297Z,17.30
2022-08-26T02:08:35.443Z,17.00
2022-08-26T02:11:02.294Z,17.10
2022-08-26T02:13:31.681Z,17.20
2022-08-26T02:16:01.065Z,17.00
2022-08-26T02:18:30.403Z,17.10
2022-08-26T02:20:57.342Z,16.90
2022-08-26T02:23:24.637Z,16.90
2022-08-26T02:26:02.842Z,16.90
2022-08-26T02:28:34.413Z,16.90
2022-08-26T02:31:02.557Z,16.90
2022-08-26T02:33:29.972Z,16.80
2022-08-26T02:35:57.769Z,16.80
2022-08-26T02:38:24.537Z,16.80
2022-08-26T02:40:51.314Z,16.70
2022-08-26T02:43:18.124Z,16.80
2022-08-26T02:45:45.875Z,16.70
2022-08-26T02:48:16.954Z,16.80
2022-08-26T02:50:45.742Z,16.80
2022-08-26T02:53:12.595Z,16.80
2022-08-26T02:55:42.319Z,16.70
2022-08-26T02:58:09.821Z,16.70
2022-08-26T03:00:38.425Z,16.70
2022-08-26T03:03:06.393Z,16.60
2022-08-26T03:05:33.618Z,16.60
2022-08-26T03:08:01.778Z,16.60
2022-08-26T03:10:31.471Z,16.50
2022-08-26T03:13:00.576Z,16.40
2022-08-26T03:15:32.452Z,16.40
2022-08-26T03:17:59.510Z,16.40
2022-08-26T03:20:26.250Z,16.40
2022-08-26T03:22:53.390Z,16.40
2022-08-26T03:25:23.202Z,16.40
2022-08-26T03:27:50.568Z,16.40
2022-08-26T03:30:36.452Z,16.30
2022-08-26T03:33:03.287Z,16.30
2022-08-26T03:35:32.024Z,16.30
2022-08-26T03:37:59.205Z,16.30
2022-08-26T03:40:29.087Z,16.20
2022-08-26T03:42:56.032Z,16.20
2022-08-26T03:45:22.913Z,16.10
2022-08-26T03:47:49.692Z,16.10
2022-08-26T03:50:22.524Z,16.10
2022-08-26T03:52:51.779Z,16.10
2022-08-26T03:55:20.207Z,16.10
2022-08-26T03:57:51.046Z,16.10
2022-08-26T04:00:18.759Z,16.10
2022-08-26T04:02:48.710Z,16.10
2022-08-26T04:05:17.837Z,16.10
2022-08-26T04:07:45.927Z,16.10
2022-08-26T04:10:15.665Z,16.00
2022-08-26T04:12:47.062Z,16.10
2022-08-26T04:15:17.778Z,16.00
2022-08-26T04:17:44.828Z,16.00
2022-08-26T04:20:16.255Z,15.90
2022-08-26T04:22:43.262Z,15.90
2022-08-26T04:25:10.713Z,15.90
2022-08-26T04:27:37.550Z,15.90
2022-08-26T04:30:05.645Z,15.90
2022-08-26T04:32:35.632Z,15.90
2022-08-26T04:35:04.566Z,15.90
2022-08-26T04:37:31.487Z,15.90
2022-08-26T04:39:59.522Z,16.00
2022-08-26T04:42:26.355Z,16.10
2022-08-26T04:44:53.307Z,15.90
2022-08-26T04:47:20.017Z,15.90
2022-08-26T04:49:46.785Z,15.90
2022-08-26T04:52:13.537Z,15.90
2022-08-26T04:54:42.024Z,15.90
2022-08-26T04:57:09.152Z,15.90
2022-08-26T04:59:39.170Z,16.00
2022-08-26T05:02:07.091Z,16.10
2022-08-26T05:04:34.514Z,16.00
2022-08-26T05:07:02.650Z,16.10
2022-08-26T05:09:29.937Z,16.10
2022-08-26T05:11:57.305Z,16.10
2022-08-26T05:14:24.230Z,16.20
2022-08-26T05:16:51.201Z,16.30
2022-08-26T05:19:19.239Z,16.30
2022-08-26T05:21:47.863Z,16.40
2022-08-26T05:24:15.222Z,16.50
2022-08-26T05:26:41.942Z,16.60
2022-08-26T05:29:11.629Z,16.70
2022-08-26T05:31:38.479Z,16.80
2022-08-26T05:34:06.003Z,16.80
2022-08-26T05:36:35.738Z,17.00
2022-08-26T05:39:05.272Z,16.90
2022-08-26T05:41:36.769Z,16.90
2022-08-26T05:44:09.375Z,17.00
2022-08-26T05:46:37.915Z,17.10
2022-08-26T05:49:06.070Z,17.20
2022-08-26T05:51:40.939Z,17.70
2022-08-26T05:54:07.843Z,17.70
2022-08-26T05:56:37.763Z,17.70
2022-08-26T05:59:04.779Z,17.50
2022-08-26T06:01:32.494Z,17.40
2022-08-26T06:04:03.074Z,17.60
2022-08-26T06:06:32.347Z,18.00
2022-08-26T06:09:00.939Z,19.50
2022-08-26T06:11:30.600Z,20.70
2022-08-26T06:14:03.751Z,20.90
2022-08-26T06:16:34.638Z,21.20
2022-08-26T06:19:03.131Z,20.60
2022-08-26T06:21:35.611Z,20.00
2022-08-26T06:24:27.210Z,19.90
2022-08-26T06:26:56.942Z,19.60
2022-08-26T06:29:25.883Z,20.50
2022-08-26T06:31:54.585Z,21.60
2022-08-26T06:34:23.649Z,21.30
2022-08-26T06:36:58.682Z,21.10
2022-08-26T06:39:25.728Z,20.90
2022-08-26T06:41:53.029Z,20.60
2022-08-26T06:44:21.008Z,20.50
2022-08-26T06:46:50.576Z,20.30
2022-08-26T06:49:18.384Z,20.10
2022-08-26T06:51:54.268Z,20.00
2022-08-26T06:54:21.239Z,20.40
2022-08-26T06:56:48.045Z,20.60
2022-08-26T06:59:16.042Z,20.80
2022-08-26T07:01:44.919Z,21.00
2022-08-26T07:04:14.585Z,21.20
2022-08-26T07:06:48.805Z,21.10
2022-08-26T07:09:16.918Z,21.00
2022-08-26T07:11:44.961Z,20.90
2022-08-26T07:14:11.998Z,21.20
2022-08-26T07:16:39.886Z,21.30
2022-08-26T07:19:10.643Z,21.60
2022-08-26T07:21:40.399Z,22.40
2022-08-26T07:24:07.949Z,22.60
2022-08-26T07:26:35.174Z,22.90
2022-08-26T07:29:03.015Z,23.10
2022-08-26T07:31:39.117Z,23.10
2022-08-26T07:34:07.714Z,24.20
2022-08-26T07:36:35.001Z,24.20
2022-08-26T07:39:01.982Z,23.90
2022-08-26T07:43:56.969Z,24.20
2022-08-26T07:46:26.946Z,24.10
2022-08-26T07:48:54.534Z,24.30
2022-08-26T07:51:22.832Z,24.50
2022-08-26T07:53:52.738Z,24.30
2022-08-26T07:56:21.035Z,24.90
2022-08-26T07:58:51.355Z,25.20
2022-08-26T08:01:19.911Z,25.00
2022-08-26T08:03:46.956Z,24.60
2022-08-26T08:06:18.745Z,24.50
2022-08-26T08:08:46.318Z,24.60
2022-08-26T08:11:14.541Z,24.80
2022-08-26T08:13:41.299Z,25.00
2022-08-26T08:16:12.534Z,25.40
2022-08-26T08:18:40.467Z,25.50
2022-08-26T08:21:23.650Z,25.70
2022-08-26T08:23:55.581Z,25.90
2022-08-26T08:26:24.421Z,26.20
2022-08-26T08:28:54.408Z,26.00
2022-08-26T08:31:54.418Z,26.10
2022-08-26T08:34:12.963Z,26.30
2022-08-26T08:36:39.796Z,26.60
2022-08-26T08:39:07.017Z,26.50
2022-08-26T08:41:44.894Z,26.70
2022-08-26T08:44:20.973Z,27.10
2022-08-26T08:46:56.050Z,26.90
2022-08-26T08:49:25.877Z,27.10
2022-08-26T08:52:00.944Z,27.20
2022-08-26T08:54:30.087Z,27.20
2022-08-26T08:57:03.070Z,27.20
2022-08-26T08:59:35.319Z,26.90
2022-08-26T09:02:22.497Z,27.30
2022-08-26T09:05:17.360Z,27.70
2022-08-26T09:07:58.581Z,27.50
2022-08-26T09:10:34.227Z,27.40
2022-08-26T09:13:08.035Z,27.70
2022-08-26T09:15:58.757Z,27.80
2022-08-26T09:18:38.534Z,28.00
2022-08-26T09:21:09.166Z,28.10
2022-08-26T09:23:40.284Z,28.30
2022-08-26T09:26:16.603Z,28.40
2022-08-26T09:28:53.920Z,28.70
2022-08-26T09:31:34.275Z,28.70
2022-08-26T09:34:23.691Z,29.10
2022-08-26T09:36:51.953Z,29.00
2022-08-26T09:39:34.607Z,29.00
2022-08-26T09:42:20.606Z,29.10
2022-08-26T09:44:56.735Z,29.10
2022-08-26T09:47:30.468Z,29.20
2022-08-26T09:50:02.083Z,29.30
2022-08-26T09:52:28.994Z,29.00
2022-08-26T09:55:12.689Z,29.00
2022-08-26T09:57:54.167Z,29.30
2022-08-26T10:00:27.174Z,29.50
2022-08-26T10:02:57.963Z,29.20
2022-08-26T10:05:45.070Z,29.10
2022-08-26T10:08:27.383Z,29.50
2022-08-26T10:10:56.375Z,29.80
2022-08-26T10:13:35.578Z,29.80
2022-08-26T10:16:16.229Z,29.50
2022-08-26T10:19:00.201Z,29.90
2022-08-26T10:21:35.413Z,29.90
2022-08-26T10:24:03.548Z,29.80
2022-08-26T10:27:07.876Z,29.80
2022-08-26T10:29:41.257Z,29.60
2022-08-26T10:32:16.570Z,29.90
2022-08-26T10:34:43.865Z,29.50
2022-08-26T10:37:18.461Z,29.60
2022-08-26T10:40:27.501Z,29.60
2022-08-26T10:43:11.023Z,29.70
2022-08-26T10:45:44.192Z,29.80
2022-08-26T10:48:21.814Z,29.70
2022-08-26T10:50:49.600Z,30.10
2022-08-26T10:53:44.324Z,30.30
2022-08-26T10:56:41.240Z,30.30
2022-08-26T10:59:43.813Z,30.70
2022-08-26T11:02:40.584Z,30.80
2022-08-26T11:05:23.493Z,30.50
2022-08-26T11:08:04.928Z,31.00
2022-08-26T11:10:50.635Z,30.50
2022-08-26T11:13:18.025Z,30.40
2022-08-26T11:15:55.169Z,30.30
2022-08-26T11:18:43.022Z,29.60
2022-08-26T11:21:41.174Z,29.30
2022-08-26T11:24:08.290Z,29.10
2022-08-26T11:26:55.758Z,28.80
2022-08-26T11:30:01.143Z,28.70
2022-08-26T11:32:34.081Z,28.70
2022-08-26T11:35:13.374Z,28.70
2022-08-26T11:37:40.606Z,28.90
2022-08-26T11:40:12.494Z,28.50
2022-08-26T11:42:54.350Z,28.40
2022-08-26T11:45:43.422Z,28.50
2022-08-26T11:48:18.860Z,28.30
2022-08-26T11:50:57.488Z,28.10
2022-08-26T11:53:26.161Z,28.00
2022-08-26T11:55:55.749Z,27.90
2022-08-26T11:58:24.560Z,27.90
2022-08-26T12:00:58.031Z,28.10
2022-08-26T12:03:37.588Z,28.10
2022-08-26T12:06:15.328Z,28.10
2022-08-26T12:08:44.901Z,28.00
2022-08-26T12:11:20.948Z,28.00
2022-08-26T12:13:56.318Z,27.90
2022-08-26T12:16:27.863Z,28.00
2022-08-26T12:18:55.397Z,28.10
2022-08-26T12:21:29.312Z,28.00
2022-08-26T12:24:03.157Z,28.20
2022-08-26T12:26:35.973Z,28.40
2022-08-26T12:29:12.704Z,28.60
2022-08-26T12:32:13.185Z,28.70
2022-08-26T12:34:45.118Z,28.80
2022-08-26T12:37:14.072Z,28.70
2022-08-26T12:39:44.494Z,28.60
2022-08-26T12:42:17.045Z,28.80
2022-08-26T12:44:53.126Z,28.70
2022-08-26T12:47:41.870Z,29.10
2022-08-26T12:50:21.224Z,29.50
2022-08-26T12:53:08.997Z,29.50
2022-08-26T12:55:43.914Z,29.40
2022-08-26T12:58:16.753Z,28.90
2022-08-26T13:00:51.856Z,29.40
2022-08-26T13:03:32.547Z,29.40
2022-08-26T13:06:29.951Z,29.50
2022-08-26T13:09:02.744Z,29.30
2022-08-26T13:11:39.904Z,29.10
2022-08-26T13:14:23.633Z,29.40
2022-08-26T13:16:51.360Z,29.30
2022-08-26T13:19:24.112Z,29.30
2022-08-26T13:21:53.926Z,29.40
2022-08-26T13:24:26.048Z,29.40
2022-08-26T13:26:52.904Z,29.30
2022-08-26T13:29:20.294Z,29.40
2022-08-26T13:31:50.096Z,29.60
2022-08-26T13:34:20.113Z,29.30
2022-08-26T13:36:48.103Z,29.70
2022-08-26T13:39:15.026Z,29.80
2022-08-26T13:41:43.190Z,29.40
2022-08-26T13:44:11.036Z,29.20
2022-08-26T13:46:38.200Z,29.10
2022-08-26T13:49:05.468Z,28.90
2022-08-26T13:51:32.990Z,29.20
2022-08-26T13:54:00.558Z,29.20
2022-08-26T13:56:29.566Z,29.20
2022-08-26T13:58:57.242Z,28.90
2022-08-26T14:01:24.481Z,28.70
2022-08-26T14:03:51.485Z,28.70
2022-08-26T14:06:18.880Z,28.70
2022-08-26T14:08:45.901Z,28.50
2022-08-26T14:11:13.006Z,28.50
2022-08-26T14:13:39.754Z,28.10
2022-08-26T14:16:11.863Z,28.10
2022-08-26T14:18:42.534Z,28.10
2022-08-26T14:21:13.455Z,28.20
2022-08-26T14:23:41.368Z,28.40
2022-08-26T14:26:10.869Z,28.20
2022-08-26T14:28:42.685Z,28.20
2022-08-26T14:31:10.182Z,28.00
2022-08-26T14:33:38.207Z,27.00
2022-08-26T14:36:24.955Z,25.00
2022-08-26T14:38:51.859Z,25.00
2022-08-26T14:41:20.022Z,24.60
2022-08-26T14:43:57.742Z,24.70
2022-08-26T14:46:28.994Z,24.50
2022-08-26T14:49:01.615Z,24.30
2022-08-26T14:51:29.663Z,24.10
2022-08-26T14:54:14.615Z,23.50
2022-08-26T14:56:48.789Z,23.30
2022-08-26T14:59:22.217Z,23.30
2022-08-26T15:01:50.049Z,23.20
2022-08-26T15:04:17.664Z,22.90
2022-08-26T15:06:44.810Z,22.60
2022-08-26T15:09:12.574Z,22.40
2022-08-26T15:11:39.664Z,19.50
2022-08-26T15:14:06.499Z,18.80
2022-08-26T15:16:33.747Z,18.70
2022-08-26T15:19:04.001Z,18.50
2022-08-26T15:21:32.790Z,18.10
2022-08-26T15:24:01.048Z,17.40
2022-08-26T15:26:30.208Z,16.50
2022-08-26T15:29:00.849Z,15.80
2022-08-26T15:31:32.113Z,15.90
2022-08-26T15:34:00.605Z,15.60
2022-08-26T15:36:28.881Z,15.60
2022-08-26T15:38:56.755Z,15.60
2022-08-26T15:41:24.417Z,15.70
2022-08-26T15:43:51.642Z,15.70
2022-08-26T15:46:19.574Z,15.70
2022-08-26T15:48:46.580Z,15.70
2022-08-26T15:51:21.083Z,15.80
2022-08-26T15:53:50.098Z,15.90
2022-08-26T15:56:17.195Z,16.00
2022-08-26T15:58:44.938Z,16.00
2022-08-26T16:01:11.933Z,16.00
2022-08-26T16:03:39.598Z,15.90
2022-08-26T16:06:07.663Z,16.10
2022-08-26T16:08:36.795Z,16.40
2022-08-26T16:11:04.253Z,16.50
2022-08-26T16:13:39.520Z,16.60
2022-08-26T16:16:08.458Z,16.60
2022-08-26T16:18:35.611Z,16.70
2022-08-26T16:21:12.738Z,16.50
2022-08-26T16:23:43.271Z,16.50
2022-08-26T16:26:19.282Z,16.60
2022-08-26T16:28:46.037Z,16.70
2022-08-26T16:31:13.322Z,16.90
2022-08-26T16:33:40.665Z,17.00
2022-08-26T16:36:08.609Z,17.00
2022-08-26T16:38:37.520Z,17.10
2022-08-26T16:41:05.320Z,17.10
2022-08-26T16:43:32.335Z,17.10
2022-08-26T16:45:59.343Z,17.10
2022-08-26T16:48:27.059Z,17.10
2022-08-26T16:50:55.522Z,17.20
2022-08-26T16:53:23.349Z,17.10
2022-08-26T16:55:50.882Z,17.30
2022-08-26T16:58:18.832Z,17.40
2022-08-26T17:00:46.077Z,17.50
2022-08-26T17:03:13.206Z,17.50
2022-08-26T17:05:40.305Z,17.40
2022-08-26T17:08:08.621Z,17.40
2022-08-26T17:10:35.698Z,17.50
2022-08-26T17:13:02.581Z,17.60
2022-08-26T17:15:29.643Z,17.50
2022-08-26T17:17:56.805Z,17.70
2022-08-26T17:20:24.593Z,17.80
2022-08-26T17:22:53.859Z,17.70
2022-08-26T17:25:28.345Z,17.70
2022-08-26T17:30:24.537Z,17.50
2022-08-26T17:32:52.354Z,17.50
2022-08-26T17:35:19.627Z,17.60
2022-08-26T17:37:46.912Z,17.60
2022-08-26T17:40:18.593Z,17.70
2022-08-26T17:42:45.838Z,17.70
2022-08-26T17:45:13.244Z,17.80
2022-08-26T17:47:41.035Z,17.80
2022-08-26T17:50:11.339Z,17.80
2022-08-26T17:52:38.476Z,17.70
2022-08-26T17:55:06.856Z,17.80
2022-08-26T17:57:40.451Z,17.70
2022-08-26T18:00:12.396Z,17.80
2022-08-26T18:02:39.827Z,17.90
2022-08-26T18:05:08.262Z,17.80
2022-08-26T18:07:43.800Z,17.90
2022-08-26T18:10:13.488Z,17.90
2022-08-26T18:12:40.983Z,18.10
2022-08-26T18:15:08.855Z,18.00
2022-08-26T18:17:35.692Z,18.00
2022-08-26T18:20:02.640Z,18.00
2022-08-26T18:22:29.707Z,17.90
2022-08-26T18:24:58.814Z,17.90
2022-08-26T18:27:26.318Z,18.10
2022-08-26T18:29:53.059Z,18.10
2022-08-26T18:32:19.764Z,18.10
2022-08-26T18:34:46.463Z,18.10
2022-08-26T18:39:41.660Z,18.00
2022-08-26T18:42:08.861Z,18.10
2022-08-26T18:44:35.757Z,17.90
2022-08-26T18:47:02.624Z,17.90
2022-08-26T18:49:29.441Z,17.90
2022-08-26T18:51:56.238Z,18.00
2022-08-26T18:54:23.078Z,17.90
2022-08-26T18:56:49.965Z,17.90
2022-08-26T18:59:17.422Z,18.00
2022-08-26T19:01:45.218Z,18.00
2022-08-26T19:04:15.394Z,17.90
2022-08-26T19:06:43.440Z,18.00
2022-08-26T19:09:12.002Z,18.00
2022-08-26T19:11:42.968Z,18.00
2022-08-26T19:14:13.603Z,18.00
2022-08-26T19:16:43.004Z,18.00
2022-08-26T19:19:10.163Z,18.00
2022-08-26T19:21:37.648Z,18.00
2022-08-26T19:24:07.348Z,18.00
2022-08-26T19:26:34.406Z,18.00
2022-08-26T19:29:01.594Z,18.00
2022-08-26T19:31:28.435Z,18.00
2022-08-26T19:33:56.688Z,18.00
2022-08-26T19:36:25.374Z,18.00
2022-08-26T19:38:53.157Z,18.10
2022-08-26T19:41:25.467Z,17.90
2022-08-26T19:43:58.712Z,18.00
2022-08-26T19:46:26.671Z,17.90
2022-08-26T19:48:55.700Z,17.90
2022-08-26T19:51:25.980Z,17.90
2022-08-26T19:53:54.617Z,17.90
2022-08-26T19:56:22.102Z,17.80
2022-08-26T19:58:49.161Z,17.90
2022-08-26T20:01:17.025Z,17.90
2022-08-26T20:03:44.825Z,17.90
2022-08-26T20:06:13.379Z,17.80
2022-08-26T20:08:41.948Z,17.90
2022-08-26T20:11:15.916Z,17.80
2022-08-26T20:13:44.254Z,17.90
2022-08-26T20:16:12.054Z,17.90
2022-08-26T20:18:59.649Z,17.80
2022-08-26T20:21:28.024Z,17.90
2022-08-26T20:23:58.391Z,17.80
2022-08-26T20:26:28.072Z,17.90
2022-08-26T20:28:55.608Z,17.90
2022-08-26T20:31:22.601Z,17.90
2022-08-26T20:33:50.552Z,17.90
2022-08-26T20:36:20.265Z,17.90
2022-08-26T20:38:48.910Z,17.90
2022-08-26T20:41:16.986Z,17.80
2022-08-26T20:43:44.098Z,17.80
2022-08-26T20:46:17.933Z,17.80
2022-08-26T20:48:45.835Z,17.70
2022-08-26T20:51:12.650Z,17.80
2022-08-26T20:53:39.711Z,17.70
2022-08-26T20:56:08.943Z,17.80
2022-08-26T20:58:35.916Z,17.70
2022-08-26T21:01:07.553Z,17.80
2022-08-26T21:03:35.832Z,17.60
2022-08-26T21:06:03.576Z,17.80
2022-08-26T21:08:33.173Z,17.60
2022-08-26T21:11:00.664Z,17.60
2022-08-26T21:13:29.042Z,17.50
2022-08-26T21:16:02.891Z,17.50
2022-08-26T21:18:29.851Z,17.50
2022-08-26T21:20:56.582Z,17.50
2022-08-26T21:23:27.456Z,17.40
2022-08-26T21:25:55.953Z,17.50
2022-08-26T21:28:23.411Z,17.40
2022-08-26T21:30:50.176Z,17.50
2022-08-26T21:33:16.887Z,17.40
2022-08-26T21:35:51.936Z,17.50
2022-08-26T21:38:20.154Z,17.40
2022-08-26T21:40:59.220Z,17.50
2022-08-26T21:43:35.165Z,17.50
2022-08-26T21:46:14.356Z,17.50
2022-08-26T21:48:45.674Z,17.50
2022-08-26T21:51:17.018Z,17.30
2022-08-26T21:53:43.779Z,17.40
2022-08-26T21:56:16.347Z,17.40
2022-08-26T21:58:43.560Z,17.50
2022-08-26T22:01:16.432Z,17.40
2022-08-26T22:03:47.464Z,17.40
2022-08-26T22:06:17.429Z,17.40
2022-08-26T22:08:44.304Z,17.40
2022-08-26T22:11:11.649Z,17.30
2022-08-26T22:13:40.236Z,17.40
2022-08-26T22:16:07.511Z,17.40
2022-08-26T22:18:35.540Z,17.40
2022-08-26T22:21:08.862Z,17.40
2022-08-26T22:23:37.008Z,17.30
2022-08-26T22:26:05.914Z,17.50
2022-08-26T22:28:32.776Z,17.40
2022-08-26T22:31:00.141Z,17.40
2022-08-26T22:33:26.941Z,17.40
2022-08-26T22:35:54.296Z,17.30
2022-08-26T22:38:23.739Z,17.30
2022-08-26T22:40:56.116Z,17.30
2022-08-26T22:43:24.789Z,17.30
2022-08-26T22:45:52.968Z,17.20
2022-08-26T22:48:25.100Z,17.30
2022-08-26T22:50:58.242Z,17.30
2022-08-26T22:53:27.201Z,17.30
2022-08-26T22:55:54.406Z,17.40
2022-08-26T22:58:23.063Z,17.40
2022-08-26T23:00:57.725Z,17.40
2022-08-26T23:03:26.606Z,17.40
2022-08-26T23:05:53.873Z,17.40
2022-08-26T23:08:21.029Z,17.40
2022-08-26T23:10:48.381Z,17.40
2022-08-26T23:13:15.909Z,17.40
2022-08-26T23:15:44.744Z,17.50
2022-08-26T23:18:13.407Z,17.40
2022-08-26T23:20:40.994Z,17.40
2022-08-26T23:23:08.212Z,17.40
2022-08-26T23:25:35.372Z,17.30
2022-08-26T23:28:02.805Z,17.30
2022-08-26T23:30:31.757Z,17.30
2022-08-26T23:32:59.082Z,17.40
2022-08-26T23:35:26.177Z,17.40
2022-08-26T23:37:53.554Z,17.40
2022-08-26T23:40:32.823Z,17.40
2022-08-26T23:43:03.332Z,17.40
2022-08-26T23:45:31.850Z,17.40
2022-08-26T23:47:59.167Z,17.40
2022-08-26T23:50:48.437Z,17.40
2022-08-26T23:53:19.893Z,17.40
2022-08-26T23:55:48.315Z,17.20
2022-08-26T23:58:17.362Z,17.30
